Aeroporto :
LOGIN :

Iscrizione | Disclaimer

   EN    FR    IT 

 










Sommario :    VFR   VFR Marginale   IFR   IFR Intensivo   IFR Molto Intensivo
Visibilità : 
Base nubi : 
>= 8 km
>= 3000ft
5 / 8 km
1000 / 3000 ft
1500m / 5 km
500 / 1000 ft
800 / 1500m
200 / 500 ft
< 800m
< 200 ft
Simboli :   Temporali  Nebbia  Neve Forte  Precipitazioni Forti  Vento > 20 kt
SIGMETs :   Varie  Temporali  Ghiacco  Turbolenza  Onda orograficha  Ceneri Vulcaniche






- Altitudine del aeroporto : 1299 ft


EDTY - Adolf Würth

ULTIMO METAR :
  • 180020Z AUTO 27010KT 9999 // BKN016/// BKN025/// OVC043/// 07/04 Q1022

METARs OBSOLETI :
  • 172350Z AUTO 26009KT 9999 // BKN015/// BKN048/// OVC095/// 07/04 Q1021
  • 172320Z AUTO 25008KT 9999 // BKN014/// BKN018/// OVC022/// 07/05 Q1021
  • 172250Z AUTO 23005KT 9999 // FEW013/// BKN015/// OVC023/// 06/05 Q1021
  • 172220Z AUTO 25007KT 9999 // SCT015/// BKN018/// OVC064/// 07/05 Q1021
  • 172150Z AUTO 24006KT 9999 // FEW013/// BKN016/// OVC067/// 06/05 Q1021

TAF TAF EDTY
Valido dal 17 a 18 ore il 18 a 03 ore UTC


171700Z 1718/1803 24007KT 9999 BKN030
TEMPO 1719/1724 RA BKN012



MetMap, La meteo Aeronautica in un colpo d'occhio ! - Copyright ORBIFLY Dicembre 2007 - Disclaimer

ORBIFLY MET'MAP TEAM :

Programmazione e sviluppo : Alexandra Zaïnal
Concezione : Baudouin d'Aumeries
Aiuto per la programmazione : Marc-Olivier Méhu
Supporto tecnico e logistico : Manuel Goepfert
Aiuto per la traduzione : Arnaldo La Scala

Contatto : metmap@orbifly.com




FONTI E CREDITI :

   NOAA